Joy — V2EI9 — position and weather

sailwx.info

Track history (hours):
 
Tides and Currents Weather Stations Pressure Air Temp Water Temp Dewpoint Dewpoint Depression Visibility Wind Speed Wind Dir Waves Ship Positions

Joy

Last reported at 2014-Aug-19 01:25 UTC. Time now 2014-Aug-22 19:43 UTC.
Position N 38°57' W 009°42'.

Length 105 m; draft 4 m.

Type: Ship (hazmat cat A). MMSI: 305444000.

Date/timePositionNaut miles runAvg speedWind from/ knotsBaromVisibWave heightAir tempDewpointWater temp
2014-Aug-19 01:25N 38°57' W 009°42'19 8.9
2014-Aug-18 23:13N 38°38' W 009°35'711.0
2014-Aug-18 22:33N 38°37' W 009°26'1110.7
2014-Aug-18 21:33N 38°41' W 009°14'7 7.2
2014-Aug-18 20:32N 38°40' W 009°04'0 0.0
2014-Aug-18 19:29N 38°40' W 009°04'0 0.0
2014-Aug-18 18:32N 38°40' W 009°04'0 0.0
2014-Aug-18 17:32N 38°40' W 009°04'0 0.0
2014-Aug-18 16:32N 38°40' W 009°04'0 0.0
2014-Aug-18 15:32N 38°40' W 009°04'0 0.0
2014-Aug-18 14:32N 38°40' W 009°04'0 0.0
2014-Aug-18 13:32N 38°40' W 009°04'0 0.0
2014-Aug-18 12:32N 38°40' W 009°04'0 0.0
2014-Aug-18 11:32N 38°40' W 009°04'0 0.0
2014-Aug-18 10:26N 38°40' W 009°04'0 0.0
2014-Aug-18 09:32N 38°40' W 009°04'0 0.0
2014-Aug-18 08:32N 38°40' W 009°04'0 0.0
2014-Aug-18 07:33N 38°40' W 009°04'0 0.0
2014-Aug-18 06:34N 38°40' W 009°04'6 6.4
2014-Aug-18 05:34N 38°41' W 009°13'6 6.3
2014-Aug-18 04:34N 38°39' W 009°20'6 5.9
2014-Aug-18 03:34N 38°35' W 009°26'2 1.7
2014-Aug-18 02:33N 38°36' W 009°28'  
2014-Aug-14 06:09N 50°31' E 000°07'712.1
2014-Aug-14 05:34N 50°32' E 000°18'1211.7
2014-Aug-14 04:34N 50°35' E 000°36'1110.8
2014-Aug-14 03:33N 50°42' E 000°50'10 9.4
2014-Aug-14 02:31N 50°48' E 001°02'16 8.1
2014-Aug-14 00:33N 50°58' E 001°22'9 9.4
2014-Aug-13 23:34N 51°04' E 001°32'1212.1
2014-Aug-13 22:34N 51°13' E 001°45'1312.9
2014-Aug-13 21:34N 51°24' E 001°57'1211.7
2014-Aug-13 20:33N 51°33' E 002°08'1010.4
2014-Aug-13 19:34N 51°41' E 002°19'12 9.3
2014-Aug-13 18:15N 51°51' E 002°31'6 8.7
2014-Aug-13 17:32N 51°55' E 002°37'144 8.8
2014-Aug-13 01:09N 53°57' E 004°46'214 7.1
2014-Aug-11 19:15N 57°03' E 007°52'8 4.4
2014-Aug-11 17:27N 57°10' E 007°59'4 3.9
2014-Aug-11 16:33N 57°12' E 008°05'18 4.4
2014-Aug-11 12:27N 57°20' E 008°35'50 7.2
2014-Aug-11 05:30N 57°43' E 009°57'9 9.3
2014-Aug-11 04:33N 57°48' E 010°11'9 9.5
2014-Aug-11 03:33N 57°49' E 010°29'9 9.4
2014-Aug-11 02:33N 57°48' E 010°46'1111.0
2014-Aug-11 01:34N 57°41' E 011°01'1111.3
2014-Aug-11 00:34N 57°33' E 011°16'1110.8
2014-Aug-10 23:33N 57°24' E 011°28'1111.2
2014-Aug-10 22:33N 57°14' E 011°36'1111.3
2014-Aug-10 21:33N 57°03' E 011°43'1111.3
2014-Aug-10 20:33N 56°52' E 011°49'1110.7
2014-Aug-10 19:32N 56°42' E 011°56'1110.9
2014-Aug-10 18:33N 56°32' E 011°60'1111.1
2014-Aug-10 17:33N 56°21' E 012°04'1110.6
2014-Aug-10 16:33N 56°13' E 012°17'1111.3
2014-Aug-10 15:34N 56°06' E 012°34'1111.0
2014-Aug-10 14:33N 55°57' E 012°43'1110.6
2014-Aug-10 13:33N 55°46' E 012°42'1110.7
2014-Aug-10 12:34N 55°36' E 012°42'1010.3
2014-Aug-10 11:34N 55°25' E 012°42'9 8.8
2014-Aug-10 10:33N 55°17' E 012°47'1010.4
2014-Aug-10 09:33N 55°15' E 013°05'1110.6
2014-Aug-10 08:31N 55°15' E 013°25'3210.2
2014-Aug-10 05:25N 55°16' E 014°20'1310.9
2014-Aug-10 04:13N 55°26' E 014°36'710.7
2014-Aug-10 03:33N 55°30' E 014°46'1110.8
2014-Aug-10 02:32N 55°35' E 015°03'1510.8
2014-Aug-10 01:07N 55°43' E 015°26'610.5
2014-Aug-10 00:33N 55°46' E 015°35'1010.5
2014-Aug-09 23:34N 55°52' E 015°51'1010.3
2014-Aug-09 22:33N 55°57' E 016°07'1010.4
2014-Aug-09 21:33N 56°02' E 016°23'3010.1
2014-Aug-09 18:34N 56°19' E 017°08'1010.3
2014-Aug-09 17:33N 56°25' E 017°23'1110.5
2014-Aug-09 16:32N 56°32' E 017°38'1110.7
2014-Aug-09 15:33N 56°38' E 017°54'1110.8
2014-Aug-09 14:32N 56°44' E 018°10'1610.6
2014-Aug-09 13:03N 56°55' E 018°31'  
Track history (hours):
 
Tides and Currents Weather Stations Pressure Air Temp Water Temp Dewpoint Dewpoint Depression Visibility Wind Speed Wind Dir Waves Ship Positions

Joy

Last reported at 2014-Aug-19 01:25 UTC. Time now 2014-Aug-22 19:43 UTC.
Position N 38°57' W 009°42'.

Length 105 m; draft 4 m.

Type: Ship (hazmat cat A). MMSI: 305444000.

Date/timePositionNaut miles runAvg speedWind from/ knotsBaromVisibWave heightAir tempDewpointWater temp
2014-Aug-19 01:25N 38°57' W 009°42'19 8.9
2014-Aug-18 23:13N 38°38' W 009°35'711.0
2014-Aug-18 22:33N 38°37' W 009°26'1110.7
2014-Aug-18 21:33N 38°41' W 009°14'7 7.2
2014-Aug-18 20:32N 38°40' W 009°04'0 0.0
2014-Aug-18 19:29N 38°40' W 009°04'0 0.0
2014-Aug-18 18:32N 38°40' W 009°04'0 0.0
2014-Aug-18 17:32N 38°40' W 009°04'0 0.0
2014-Aug-18 16:32N 38°40' W 009°04'0 0.0
2014-Aug-18 15:32N 38°40' W 009°04'0 0.0
2014-Aug-18 14:32N 38°40' W 009°04'0 0.0
2014-Aug-18 13:32N 38°40' W 009°04'0 0.0
2014-Aug-18 12:32N 38°40' W 009°04'0 0.0
2014-Aug-18 11:32N 38°40' W 009°04'0 0.0
2014-Aug-18 10:26N 38°40' W 009°04'0 0.0
2014-Aug-18 09:32N 38°40' W 009°04'0 0.0
2014-Aug-18 08:32N 38°40' W 009°04'0 0.0
2014-Aug-18 07:33N 38°40' W 009°04'0 0.0
2014-Aug-18 06:34N 38°40' W 009°04'6 6.4
2014-Aug-18 05:34N 38°41' W 009°13'6 6.3
2014-Aug-18 04:34N 38°39' W 009°20'6 5.9
2014-Aug-18 03:34N 38°35' W 009°26'2 1.7
2014-Aug-18 02:33N 38°36' W 009°28'  
2014-Aug-14 06:09N 50°31' E 000°07'712.1
2014-Aug-14 05:34N 50°32' E 000°18'1211.7
2014-Aug-14 04:34N 50°35' E 000°36'1110.8
2014-Aug-14 03:33N 50°42' E 000°50'10 9.4
2014-Aug-14 02:31N 50°48' E 001°02'16 8.1
2014-Aug-14 00:33N 50°58' E 001°22'9 9.4
2014-Aug-13 23:34N 51°04' E 001°32'1212.1
2014-Aug-13 22:34N 51°13' E 001°45'1312.9
2014-Aug-13 21:34N 51°24' E 001°57'1211.7
2014-Aug-13 20:33N 51°33' E 002°08'1010.4
2014-Aug-13 19:34N 51°41' E 002°19'12 9.3
2014-Aug-13 18:15N 51°51' E 002°31'6 8.7
2014-Aug-13 17:32N 51°55' E 002°37'144 8.8
2014-Aug-13 01:09N 53°57' E 004°46'214 7.1
2014-Aug-11 19:15N 57°03' E 007°52'8 4.4
2014-Aug-11 17:27N 57°10' E 007°59'4 3.9
2014-Aug-11 16:33N 57°12' E 008°05'18 4.4
2014-Aug-11 12:27N 57°20' E 008°35'50 7.2
2014-Aug-11 05:30N 57°43' E 009°57'9 9.3
2014-Aug-11 04:33N 57°48' E 010°11'9 9.5
2014-Aug-11 03:33N 57°49' E 010°29'9 9.4
2014-Aug-11 02:33N 57°48' E 010°46'1111.0
2014-Aug-11 01:34N 57°41' E 011°01'1111.3
2014-Aug-11 00:34N 57°33' E 011°16'1110.8
2014-Aug-10 23:33N 57°24' E 011°28'1111.2
2014-Aug-10 22:33N 57°14' E 011°36'1111.3
2014-Aug-10 21:33N 57°03' E 011°43'1111.3
2014-Aug-10 20:33N 56°52' E 011°49'1110.7
2014-Aug-10 19:32N 56°42' E 011°56'1110.9
2014-Aug-10 18:33N 56°32' E 011°60'1111.1
2014-Aug-10 17:33N 56°21' E 012°04'1110.6
2014-Aug-10 16:33N 56°13' E 012°17'1111.3
2014-Aug-10 15:34N 56°06' E 012°34'1111.0
2014-Aug-10 14:33N 55°57' E 012°43'1110.6
2014-Aug-10 13:33N 55°46' E 012°42'1110.7
2014-Aug-10 12:34N 55°36' E 012°42'1010.3
2014-Aug-10 11:34N 55°25' E 012°42'9 8.8
2014-Aug-10 10:33N 55°17' E 012°47'1010.4
2014-Aug-10 09:33N 55°15' E 013°05'1110.6
2014-Aug-10 08:31N 55°15' E 013°25'3210.2
2014-Aug-10 05:25N 55°16' E 014°20'1310.9
2014-Aug-10 04:13N 55°26' E 014°36'710.7
2014-Aug-10 03:33N 55°30' E 014°46'1110.8
2014-Aug-10 02:32N 55°35' E 015°03'1510.8
2014-Aug-10 01:07N 55°43' E 015°26'610.5
2014-Aug-10 00:33N 55°46' E 015°35'1010.5
2014-Aug-09 23:34N 55°52' E 015°51'1010.3
2014-Aug-09 22:33N 55°57' E 016°07'1010.4
2014-Aug-09 21:33N 56°02' E 016°23'3010.1
2014-Aug-09 18:34N 56°19' E 017°08'1010.3
2014-Aug-09 17:33N 56°25' E 017°23'1110.5
2014-Aug-09 16:32N 56°32' E 017°38'1110.7
2014-Aug-09 15:33N 56°38' E 017°54'1110.8
2014-Aug-09 14:32N 56°44' E 018°10'1610.6
2014-Aug-09 13:03N 56°55' E 018°31'  

Dump ship's entire track history